sensor_id;sensor_type;location;lat;lon;timestamp;temperature;humidity
16038;DHT22;8123;50.906;6.172;2023-04-25T00:01:13;7.70;99.90
16038;DHT22;8123;50.906;6.172;2023-04-25T00:03:39;7.80;99.90
16038;DHT22;8123;50.906;6.172;2023-04-25T00:06:05;7.90;99.90
16038;DHT22;8123;50.906;6.172;2023-04-25T00:08:32;7.70;99.90
16038;DHT22;8123;50.906;6.172;2023-04-25T00:10:58;7.70;99.90
16038;DHT22;8123;50.906;6.172;2023-04-25T00:13:25;7.70;99.90
16038;DHT22;8123;50.906;6.172;2023-04-25T00:15:52;7.80;99.90
16038;DHT22;8123;50.906;6.172;2023-04-25T00:18:19;7.70;99.90
16038;DHT22;8123;50.906;6.172;2023-04-25T00:20:45;7.70;99.90
16038;DHT22;8123;50.906;6.172;2023-04-25T00:23:21;8.10;99.90
16038;DHT22;8123;50.906;6.172;2023-04-25T00:25:50;7.70;99.90
16038;DHT22;8123;50.906;6.172;2023-04-25T00:28:16;7.60;99.90
16038;DHT22;8123;50.906;6.172;2023-04-25T00:30:43;7.60;99.90
16038;DHT22;8123;50.906;6.172;2023-04-25T00:33:09;7.70;99.90
16038;DHT22;8123;50.906;6.172;2023-04-25T00:35:35;7.70;99.90
16038;DHT22;8123;50.906;6.172;2023-04-25T00:38:01;7.60;99.90
16038;DHT22;8123;50.906;6.172;2023-04-25T00:40:27;7.60;99.90
16038;DHT22;8123;50.906;6.172;2023-04-25T00:42:53;7.80;99.90
16038;DHT22;8123;50.906;6.172;2023-04-25T00:45:19;7.90;99.90
16038;DHT22;8123;50.906;6.172;2023-04-25T00:47:45;7.60;99.90
16038;DHT22;8123;50.906;6.172;2023-04-25T00:50:12;7.60;99.90
16038;DHT22;8123;50.906;6.172;2023-04-25T00:52:43;7.60;99.90
16038;DHT22;8123;50.906;6.172;2023-04-25T00:55:10;7.80;99.90
16038;DHT22;8123;50.906;6.172;2023-04-25T00:57:38;7.60;99.90
16038;DHT22;8123;50.906;6.172;2023-04-25T01:00:06;7.60;99.90
16038;DHT22;8123;50.906;6.172;2023-04-25T01:02:33;7.60;99.90
16038;DHT22;8123;50.906;6.172;2023-04-25T01:04:58;7.60;99.90
16038;DHT22;8123;50.906;6.172;2023-04-25T01:07:25;7.90;99.90
16038;DHT22;8123;50.906;6.172;2023-04-25T01:09:54;7.60;99.90
16038;DHT22;8123;50.906;6.172;2023-04-25T01:12:20;7.60;99.90
16038;DHT22;8123;50.906;6.172;2023-04-25T01:14:46;7.50;99.90
16038;DHT22;8123;50.906;6.172;2023-04-25T01:17:12;7.50;99.90
16038;DHT22;8123;50.906;6.172;2023-04-25T01:19:38;7.60;99.90
16038;DHT22;8123;50.906;6.172;2023-04-25T01:22:03;7.60;99.90
16038;DHT22;8123;50.906;6.172;2023-04-25T01:24:32;7.60;99.90
16038;DHT22;8123;50.906;6.172;2023-04-25T01:27:00;7.50;99.90
16038;DHT22;8123;50.906;6.172;2023-04-25T01:29:27;7.60;99.90
16038;DHT22;8123;50.906;6.172;2023-04-25T01:31:53;7.60;99.90
16038;DHT22;8123;50.906;6.172;2023-04-25T01:34:19;7.60;99.90
16038;DHT22;8123;50.906;6.172;2023-04-25T01:36:49;7.50;99.90
16038;DHT22;8123;50.906;6.172;2023-04-25T01:39:16;7.70;99.90
16038;DHT22;8123;50.906;6.172;2023-04-25T01:41:42;7.50;99.90
16038;DHT22;8123;50.906;6.172;2023-04-25T01:44:08;7.80;99.90
16038;DHT22;8123;50.906;6.172;2023-04-25T01:46:34;7.60;99.90
16038;DHT22;8123;50.906;6.172;2023-04-25T01:49:00;7.50;99.90
16038;DHT22;8123;50.906;6.172;2023-04-25T01:51:26;7.70;99.90
16038;DHT22;8123;50.906;6.172;2023-04-25T01:53:52;7.50;99.90
16038;DHT22;8123;50.906;6.172;2023-04-25T01:56:18;7.70;99.90
16038;DHT22;8123;50.906;6.172;2023-04-25T01:58:44;7.80;99.90
16038;DHT22;8123;50.906;6.172;2023-04-25T02:01:10;7.70;99.90
16038;DHT22;8123;50.906;6.172;2023-04-25T02:03:36;7.50;99.90
16038;DHT22;8123;50.906;6.172;2023-04-25T02:06:02;7.50;99.90
16038;DHT22;8123;50.906;6.172;2023-04-25T02:08:27;7.50;99.90
16038;DHT22;8123;50.906;6.172;2023-04-25T02:10:53;7.50;99.90
16038;DHT22;8123;50.906;6.172;2023-04-25T02:13:18;7.80;99.90
16038;DHT22;8123;50.906;6.172;2023-04-25T02:15:44;7.50;99.90
16038;DHT22;8123;50.906;6.172;2023-04-25T02:18:10;7.50;99.90
16038;DHT22;8123;50.906;6.172;2023-04-25T02:20:36;7.40;99.90
16038;DHT22;8123;50.906;6.172;2023-04-25T02:23:02;7.50;99.90
16038;DHT22;8123;50.906;6.172;2023-04-25T02:25:28;7.50;99.90
16038;DHT22;8123;50.906;6.172;2023-04-25T02:27:54;7.40;99.90
16038;DHT22;8123;50.906;6.172;2023-04-25T02:30:20;7.70;99.90
16038;DHT22;8123;50.906;6.172;2023-04-25T02:32:46;7.60;99.90
16038;DHT22;8123;50.906;6.172;2023-04-25T02:35:11;7.40;99.90
16038;DHT22;8123;50.906;6.172;2023-04-25T02:37:38;7.40;99.90
16038;DHT22;8123;50.906;6.172;2023-04-25T02:40:05;7.70;99.90
16038;DHT22;8123;50.906;6.172;2023-04-25T02:42:31;7.40;99.90
16038;DHT22;8123;50.906;6.172;2023-04-25T02:44:56;7.30;99.90
16038;DHT22;8123;50.906;6.172;2023-04-25T02:47:22;7.70;99.90
16038;DHT22;8123;50.906;6.172;2023-04-25T02:49:48;7.30;99.90
16038;DHT22;8123;50.906;6.172;2023-04-25T02:52:13;7.40;99.90
16038;DHT22;8123;50.906;6.172;2023-04-25T02:54:40;7.30;99.90
16038;DHT22;8123;50.906;6.172;2023-04-25T02:57:06;7.50;99.90
16038;DHT22;8123;50.906;6.172;2023-04-25T02:59:31;7.20;99.90
16038;DHT22;8123;50.906;6.172;2023-04-25T03:01:57;7.50;99.90
16038;DHT22;8123;50.906;6.172;2023-04-25T03:04:23;7.50;99.90
16038;DHT22;8123;50.906;6.172;2023-04-25T03:06:52;7.50;99.90
16038;DHT22;8123;50.906;6.172;2023-04-25T03:09:18;7.20;99.90
16038;DHT22;8123;50.906;6.172;2023-04-25T03:11:45;7.40;99.90
16038;DHT22;8123;50.906;6.172;2023-04-25T03:14:11;7.20;99.90
16038;DHT22;8123;50.906;6.172;2023-04-25T03:16:37;7.20;99.90
16038;DHT22;8123;50.906;6.172;2023-04-25T03:19:03;7.10;99.90
16038;DHT22;8123;50.906;6.172;2023-04-25T03:21:33;7.50;99.90
16038;DHT22;8123;50.906;6.172;2023-04-25T03:24:00;7.40;99.90
16038;DHT22;8123;50.906;6.172;2023-04-25T03:26:26;7.10;99.90
16038;DHT22;8123;50.906;6.172;2023-04-25T03:28:51;7.10;99.90
16038;DHT22;8123;50.906;6.172;2023-04-25T03:31:17;7.10;99.90
16038;DHT22;8123;50.906;6.172;2023-04-25T03:33:42;7.00;99.90
16038;DHT22;8123;50.906;6.172;2023-04-25T03:36:08;7.00;99.90
16038;DHT22;8123;50.906;6.172;2023-04-25T03:38:34;7.00;99.90
16038;DHT22;8123;50.906;6.172;2023-04-25T03:41:01;7.20;99.90
16038;DHT22;8123;50.906;6.172;2023-04-25T03:43:27;7.00;99.90
16038;DHT22;8123;50.906;6.172;2023-04-25T03:45:53;7.00;99.90
16038;DHT22;8123;50.906;6.172;2023-04-25T03:48:18;7.30;99.90
16038;DHT22;8123;50.906;6.172;2023-04-25T03:50:47;7.00;99.90
16038;DHT22;8123;50.906;6.172;2023-04-25T03:53:12;7.00;99.90
16038;DHT22;8123;50.906;6.172;2023-04-25T03:55:38;7.40;99.90
16038;DHT22;8123;50.906;6.172;2023-04-25T03:58:03;6.90;99.90
16038;DHT22;8123;50.906;6.172;2023-04-25T04:00:30;7.00;99.90
16038;DHT22;8123;50.906;6.172;2023-04-25T04:02:56;7.00;99.90
16038;DHT22;8123;50.906;6.172;2023-04-25T04:05:21;7.00;99.90
16038;DHT22;8123;50.906;6.172;2023-04-25T04:07:47;7.10;99.90
16038;DHT22;8123;50.906;6.172;2023-04-25T04:10:13;7.40;99.90
16038;DHT22;8123;50.906;6.172;2023-04-25T04:12:38;7.00;99.90
16038;DHT22;8123;50.906;6.172;2023-04-25T04:15:05;7.40;99.90
16038;DHT22;8123;50.906;6.172;2023-04-25T04:17:31;7.00;99.90
16038;DHT22;8123;50.906;6.172;2023-04-25T04:19:57;7.00;99.90
16038;DHT22;8123;50.906;6.172;2023-04-25T04:22:23;7.20;99.90
16038;DHT22;8123;50.906;6.172;2023-04-25T04:24:49;7.20;99.90
16038;DHT22;8123;50.906;6.172;2023-04-25T04:27:18;7.10;99.90
16038;DHT22;8123;50.906;6.172;2023-04-25T04:29:45;7.00;99.90
16038;DHT22;8123;50.906;6.172;2023-04-25T04:32:12;7.10;99.90
16038;DHT22;8123;50.906;6.172;2023-04-25T04:34:37;7.00;99.90
16038;DHT22;8123;50.906;6.172;2023-04-25T04:37:05;7.20;99.90
16038;DHT22;8123;50.906;6.172;2023-04-25T04:39:32;7.00;99.90
16038;DHT22;8123;50.906;6.172;2023-04-25T04:41:58;7.40;99.90
16038;DHT22;8123;50.906;6.172;2023-04-25T04:44:24;7.00;99.90
16038;DHT22;8123;50.906;6.172;2023-04-25T04:46:50;7.00;99.90
16038;DHT22;8123;50.906;6.172;2023-04-25T04:49:16;7.40;99.90
16038;DHT22;8123;50.906;6.172;2023-04-25T04:51:43;7.20;99.90
16038;DHT22;8123;50.906;6.172;2023-04-25T04:54:12;7.30;99.90
16038;DHT22;8123;50.906;6.172;2023-04-25T04:56:37;7.00;99.90
16038;DHT22;8123;50.906;6.172;2023-04-25T04:59:03;6.90;99.90
16038;DHT22;8123;50.906;6.172;2023-04-25T05:01:29;7.20;99.90
16038;DHT22;8123;50.906;6.172;2023-04-25T05:03:57;6.90;99.90
16038;DHT22;8123;50.906;6.172;2023-04-25T05:06:29;7.00;99.90
16038;DHT22;8123;50.906;6.172;2023-04-25T05:08:55;7.20;99.90
16038;DHT22;8123;50.906;6.172;2023-04-25T05:11:22;7.40;99.90
16038;DHT22;8123;50.906;6.172;2023-04-25T05:13:49;7.10;99.90
16038;DHT22;8123;50.906;6.172;2023-04-25T05:16:15;7.30;99.90
16038;DHT22;8123;50.906;6.172;2023-04-25T05:18:41;7.10;99.90
16038;DHT22;8123;50.906;6.172;2023-04-25T05:21:07;7.10;99.90
16038;DHT22;8123;50.906;6.172;2023-04-25T05:23:33;7.40;99.90
16038;DHT22;8123;50.906;6.172;2023-04-25T05:25:59;7.30;99.90
16038;DHT22;8123;50.906;6.172;2023-04-25T05:28:25;7.10;99.90
16038;DHT22;8123;50.906;6.172;2023-04-25T05:30:50;7.10;99.90
16038;DHT22;8123;50.906;6.172;2023-04-25T05:33:16;7.20;99.90
16038;DHT22;8123;50.906;6.172;2023-04-25T05:35:42;7.20;99.90
16038;DHT22;8123;50.906;6.172;2023-04-25T05:38:08;7.40;99.90
16038;DHT22;8123;50.906;6.172;2023-04-25T05:40:33;7.20;99.90
16038;DHT22;8123;50.906;6.172;2023-04-25T05:42:59;7.60;99.90
16038;DHT22;8123;50.906;6.172;2023-04-25T05:45:24;7.30;99.90
16038;DHT22;8123;50.906;6.172;2023-04-25T05:47:50;7.30;99.90
16038;DHT22;8123;50.906;6.172;2023-04-25T05:50:15;7.30;99.90
16038;DHT22;8123;50.906;6.172;2023-04-25T05:52:41;7.30;99.90
16038;DHT22;8123;50.906;6.172;2023-04-25T05:55:07;7.30;99.90
16038;DHT22;8123;50.906;6.172;2023-04-25T05:57:33;7.30;99.90
16038;DHT22;8123;50.906;6.172;2023-04-25T05:59:58;7.30;99.90
16038;DHT22;8123;50.906;6.172;2023-04-25T06:02:24;7.30;99.90
16038;DHT22;8123;50.906;6.172;2023-04-25T06:04:50;7.30;99.90
16038;DHT22;8123;50.906;6.172;2023-04-25T06:07:17;7.50;99.90
16038;DHT22;8123;50.906;6.172;2023-04-25T06:09:43;7.30;99.90
16038;DHT22;8123;50.906;6.172;2023-04-25T06:12:09;7.30;99.90
16038;DHT22;8123;50.906;6.172;2023-04-25T06:14:34;7.70;99.90
16038;DHT22;8123;50.906;6.172;2023-04-25T06:17:00;7.50;99.90
16038;DHT22;8123;50.906;6.172;2023-04-25T06:19:32;7.40;99.90
16038;DHT22;8123;50.906;6.172;2023-04-25T06:21:58;7.50;99.90
16038;DHT22;8123;50.906;6.172;2023-04-25T06:24:24;7.60;99.90
16038;DHT22;8123;50.906;6.172;2023-04-25T06:26:49;7.80;99.90
16038;DHT22;8123;50.906;6.172;2023-04-25T06:29:15;7.80;99.90
16038;DHT22;8123;50.906;6.172;2023-04-25T06:31:41;8.00;99.90
16038;DHT22;8123;50.906;6.172;2023-04-25T06:34:06;8.00;99.90
16038;DHT22;8123;50.906;6.172;2023-04-25T06:36:32;7.70;99.90
16038;DHT22;8123;50.906;6.172;2023-04-25T06:38:57;7.80;99.90
16038;DHT22;8123;50.906;6.172;2023-04-25T06:41:23;8.20;99.90
16038;DHT22;8123;50.906;6.172;2023-04-25T06:43:49;8.00;99.90
16038;DHT22;8123;50.906;6.172;2023-04-25T06:46:14;7.80;99.90
16038;DHT22;8123;50.906;6.172;2023-04-25T06:48:40;7.80;99.90
16038;DHT22;8123;50.906;6.172;2023-04-25T06:51:06;7.90;99.90
16038;DHT22;8123;50.906;6.172;2023-04-25T06:53:31;8.20;99.90
16038;DHT22;8123;50.906;6.172;2023-04-25T06:55:57;8.20;99.90
16038;DHT22;8123;50.906;6.172;2023-04-25T06:58:22;8.40;99.90
16038;DHT22;8123;50.906;6.172;2023-04-25T07:00:48;8.50;99.90
16038;DHT22;8123;50.906;6.172;2023-04-25T07:03:14;8.00;99.90
16038;DHT22;8123;50.906;6.172;2023-04-25T07:05:40;8.10;99.90
16038;DHT22;8123;50.906;6.172;2023-04-25T07:08:05;8.10;99.90
16038;DHT22;8123;50.906;6.172;2023-04-25T07:10:31;8.10;99.90
16038;DHT22;8123;50.906;6.172;2023-04-25T07:12:56;8.30;99.90
16038;DHT22;8123;50.906;6.172;2023-04-25T07:15:22;8.10;99.90
16038;DHT22;8123;50.906;6.172;2023-04-25T07:17:48;8.20;99.90
16038;DHT22;8123;50.906;6.172;2023-04-25T07:20:13;8.50;99.90
16038;DHT22;8123;50.906;6.172;2023-04-25T07:22:39;8.90;99.90
16038;DHT22;8123;50.906;6.172;2023-04-25T07:25:05;8.60;99.90
16038;DHT22;8123;50.906;6.172;2023-04-25T07:27:31;8.60;99.90
16038;DHT22;8123;50.906;6.172;2023-04-25T07:29:57;8.60;99.90
16038;DHT22;8123;50.906;6.172;2023-04-25T07:32:23;8.50;99.90
16038;DHT22;8123;50.906;6.172;2023-04-25T07:34:48;8.50;99.90
16038;DHT22;8123;50.906;6.172;2023-04-25T07:37:14;8.60;99.90
16038;DHT22;8123;50.906;6.172;2023-04-25T07:39:40;8.60;99.90
16038;DHT22;8123;50.906;6.172;2023-04-25T07:42:07;8.70;99.90
16038;DHT22;8123;50.906;6.172;2023-04-25T07:44:36;8.70;99.90
16038;DHT22;8123;50.906;6.172;2023-04-25T07:47:07;8.70;99.90
16038;DHT22;8123;50.906;6.172;2023-04-25T07:49:36;8.90;99.90
16038;DHT22;8123;50.906;6.172;2023-04-25T07:52:03;8.70;99.90
16038;DHT22;8123;50.906;6.172;2023-04-25T07:54:29;8.80;99.90
16038;DHT22;8123;50.906;6.172;2023-04-25T07:56:55;8.70;99.90
16038;DHT22;8123;50.906;6.172;2023-04-25T07:59:21;8.70;99.90
16038;DHT22;8123;50.906;6.172;2023-04-25T08:01:47;8.80;99.90
16038;DHT22;8123;50.906;6.172;2023-04-25T08:04:13;8.80;99.90
16038;DHT22;8123;50.906;6.172;2023-04-25T08:06:39;9.00;99.90
16038;DHT22;8123;50.906;6.172;2023-04-25T08:09:06;9.10;99.90
16038;DHT22;8123;50.906;6.172;2023-04-25T08:11:32;8.80;99.90
16038;DHT22;8123;50.906;6.172;2023-04-25T08:13:57;8.90;99.90
16038;DHT22;8123;50.906;6.172;2023-04-25T08:16:23;8.80;99.90
16038;DHT22;8123;50.906;6.172;2023-04-25T08:18:50;9.10;99.90
16038;DHT22;8123;50.906;6.172;2023-04-25T08:21:15;9.00;99.90
16038;DHT22;8123;50.906;6.172;2023-04-25T08:23:41;8.80;99.90
16038;DHT22;8123;50.906;6.172;2023-04-25T08:26:08;8.80;99.90
16038;DHT22;8123;50.906;6.172;2023-04-25T08:28:37;9.00;99.90
16038;DHT22;8123;50.906;6.172;2023-04-25T08:31:03;9.30;99.90
16038;DHT22;8123;50.906;6.172;2023-04-25T08:33:29;9.40;99.90
16038;DHT22;8123;50.906;6.172;2023-04-25T08:35:55;9.40;99.90
16038;DHT22;8123;50.906;6.172;2023-04-25T08:38:21;9.40;99.90
16038;DHT22;8123;50.906;6.172;2023-04-25T08:40:49;9.40;99.90
16038;DHT22;8123;50.906;6.172;2023-04-25T08:43:18;9.40;99.90
16038;DHT22;8123;50.906;6.172;2023-04-25T08:45:44;9.50;99.90
16038;DHT22;8123;50.906;6.172;2023-04-25T08:48:15;10.10;99.90
16038;DHT22;8123;50.906;6.172;2023-04-25T08:50:46;9.90;99.90
16038;DHT22;8123;50.906;6.172;2023-04-25T08:53:16;10.10;99.90
16038;DHT22;8123;50.906;6.172;2023-04-25T08:55:45;10.20;97.40
16038;DHT22;8123;50.906;6.172;2023-04-25T08:58:12;9.80;92.90
16038;DHT22;8123;50.906;6.172;2023-04-25T09:00:38;9.70;95.70
16038;DHT22;8123;50.906;6.172;2023-04-25T09:03:05;10.10;94.80
16038;DHT22;8123;50.906;6.172;2023-04-25T09:05:32;9.90;95.40
16038;DHT22;8123;50.906;6.172;2023-04-25T09:07:58;9.70;93.80
16038;DHT22;8123;50.906;6.172;2023-04-25T09:10:23;9.60;93.90
16038;DHT22;8123;50.906;6.172;2023-04-25T09:13:12;9.60;94.00
16038;DHT22;8123;50.906;6.172;2023-04-25T09:15:54;9.50;95.60
16038;DHT22;8123;50.906;6.172;2023-04-25T09:18:34;9.30;96.70
16038;DHT22;8123;50.906;6.172;2023-04-25T09:21:11;9.30;94.80
16038;DHT22;8123;50.906;6.172;2023-04-25T09:23:48;9.30;96.20
16038;DHT22;8123;50.906;6.172;2023-04-25T09:26:16;9.50;96.50
16038;DHT22;8123;50.906;6.172;2023-04-25T09:28:45;9.40;97.80
16038;DHT22;8123;50.906;6.172;2023-04-25T09:31:11;9.50;97.60
16038;DHT22;8123;50.906;6.172;2023-04-25T09:33:37;9.50;95.20
16038;DHT22;8123;50.906;6.172;2023-04-25T09:38:30;9.40;95.60
16038;DHT22;8123;50.906;6.172;2023-04-25T09:40:56;9.40;96.60
16038;DHT22;8123;50.906;6.172;2023-04-25T09:43:23;9.30;95.60
16038;DHT22;8123;50.906;6.172;2023-04-25T09:45:51;9.30;94.50
16038;DHT22;8123;50.906;6.172;2023-04-25T09:48:20;9.60;95.30
16038;DHT22;8123;50.906;6.172;2023-04-25T09:51:10;9.60;94.70
16038;DHT22;8123;50.906;6.172;2023-04-25T09:53:38;9.80;92.40
16038;DHT22;8123;50.906;6.172;2023-04-25T09:56:05;9.70;93.50
16038;DHT22;8123;50.906;6.172;2023-04-25T09:58:32;9.80;92.70
16038;DHT22;8123;50.906;6.172;2023-04-25T10:01:01;10.10;92.10
16038;DHT22;8123;50.906;6.172;2023-04-25T10:03:33;10.00;90.30
16038;DHT22;8123;50.906;6.172;2023-04-25T10:06:00;10.40;90.30
16038;DHT22;8123;50.906;6.172;2023-04-25T10:08:35;10.20;86.50
16038;DHT22;8123;50.906;6.172;2023-04-25T10:11:03;10.20;81.10
16038;DHT22;8123;50.906;6.172;2023-04-25T10:13:32;10.40;84.60
16038;DHT22;8123;50.906;6.172;2023-04-25T10:16:00;10.30;84.80
16038;DHT22;8123;50.906;6.172;2023-04-25T10:18:26;10.40;88.50
16038;DHT22;8123;50.906;6.172;2023-04-25T10:21:04;10.40;88.00
16038;DHT22;8123;50.906;6.172;2023-04-25T10:23:31;10.40;88.40
16038;DHT22;8123;50.906;6.172;2023-04-25T10:25:57;10.20;85.50
16038;DHT22;8123;50.906;6.172;2023-04-25T10:28:24;10.20;84.70
16038;DHT22;8123;50.906;6.172;2023-04-25T10:30:59;10.60;86.90
16038;DHT22;8123;50.906;6.172;2023-04-25T10:33:36;10.20;85.50
16038;DHT22;8123;50.906;6.172;2023-04-25T10:36:13;10.20;84.40
16038;DHT22;8123;50.906;6.172;2023-04-25T10:38:39;10.30;84.10
16038;DHT22;8123;50.906;6.172;2023-04-25T10:41:07;10.40;82.10
16038;DHT22;8123;50.906;6.172;2023-04-25T10:43:40;10.40;79.70
16038;DHT22;8123;50.906;6.172;2023-04-25T10:46:26;10.50;80.20
16038;DHT22;8123;50.906;6.172;2023-04-25T10:49:03;10.50;77.50
16038;DHT22;8123;50.906;6.172;2023-04-25T10:51:33;10.40;77.90
16038;DHT22;8123;50.906;6.172;2023-04-25T10:54:03;10.20;80.00
16038;DHT22;8123;50.906;6.172;2023-04-25T10:56:31;10.20;77.00
16038;DHT22;8123;50.906;6.172;2023-04-25T10:59:17;10.30;78.70
16038;DHT22;8123;50.906;6.172;2023-04-25T11:01:48;9.90;79.80
16038;DHT22;8123;50.906;6.172;2023-04-25T11:04:29;9.80;81.60
16038;DHT22;8123;50.906;6.172;2023-04-25T11:07:19;9.80;87.00
16038;DHT22;8123;50.906;6.172;2023-04-25T11:09:49;9.90;84.50
16038;DHT22;8123;50.906;6.172;2023-04-25T11:12:15;9.80;81.80
16038;DHT22;8123;50.906;6.172;2023-04-25T11:14:41;9.90;82.70
16038;DHT22;8123;50.906;6.172;2023-04-25T11:17:07;9.90;83.00
16038;DHT22;8123;50.906;6.172;2023-04-25T11:19:33;10.00;83.30
16038;DHT22;8123;50.906;6.172;2023-04-25T11:22:00;10.00;77.80
16038;DHT22;8123;50.906;6.172;2023-04-25T11:24:31;10.10;79.20
16038;DHT22;8123;50.906;6.172;2023-04-25T11:27:00;10.10;81.40
16038;DHT22;8123;50.906;6.172;2023-04-25T11:29:28;10.30;80.60
16038;DHT22;8123;50.906;6.172;2023-04-25T11:31:55;10.50;79.70
16038;DHT22;8123;50.906;6.172;2023-04-25T11:34:26;10.30;82.60
16038;DHT22;8123;50.906;6.172;2023-04-25T11:36:53;10.40;78.30
16038;DHT22;8123;50.906;6.172;2023-04-25T11:39:19;10.40;79.00
16038;DHT22;8123;50.906;6.172;2023-04-25T11:41:46;10.40;80.50
16038;DHT22;8123;50.906;6.172;2023-04-25T11:44:15;10.40;82.30
16038;DHT22;8123;50.906;6.172;2023-04-25T11:46:42;10.50;83.60
16038;DHT22;8123;50.906;6.172;2023-04-25T11:49:07;10.40;81.10
16038;DHT22;8123;50.906;6.172;2023-04-25T11:51:44;10.20;79.20
16038;DHT22;8123;50.906;6.172;2023-04-25T11:54:10;10.40;80.80
16038;DHT22;8123;50.906;6.172;2023-04-25T11:56:37;10.60;78.10
16038;DHT22;8123;50.906;6.172;2023-04-25T11:59:05;10.80;75.60
16038;DHT22;8123;50.906;6.172;2023-04-25T12:01:32;10.50;67.90
16038;DHT22;8123;50.906;6.172;2023-04-25T12:04:09;10.60;60.00
16038;DHT22;8123;50.906;6.172;2023-04-25T12:06:37;10.60;58.90
16038;DHT22;8123;50.906;6.172;2023-04-25T12:09:11;10.80;60.00
16038;DHT22;8123;50.906;6.172;2023-04-25T12:11:46;10.90;58.50
16038;DHT22;8123;50.906;6.172;2023-04-25T12:14:25;11.20;58.20
16038;DHT22;8123;50.906;6.172;2023-04-25T12:16:54;11.40;63.20
16038;DHT22;8123;50.906;6.172;2023-04-25T12:19:20;11.50;56.90
16038;DHT22;8123;50.906;6.172;2023-04-25T12:21:47;11.40;55.60
16038;DHT22;8123;50.906;6.172;2023-04-25T12:24:24;11.30;58.00
16038;DHT22;8123;50.906;6.172;2023-04-25T12:27:01;11.30;58.30
16038;DHT22;8123;50.906;6.172;2023-04-25T12:29:29;11.20;58.60
16038;DHT22;8123;50.906;6.172;2023-04-25T12:31:55;11.00;56.90
16038;DHT22;8123;50.906;6.172;2023-04-25T12:34:21;10.80;59.40
16038;DHT22;8123;50.906;6.172;2023-04-25T12:36:48;10.80;61.10
16038;DHT22;8123;50.906;6.172;2023-04-25T12:39:17;10.70;58.80
16038;DHT22;8123;50.906;6.172;2023-04-25T12:41:44;10.70;60.50
16038;DHT22;8123;50.906;6.172;2023-04-25T12:44:10;10.70;59.40
16038;DHT22;8123;50.906;6.172;2023-04-25T12:46:36;10.70;56.80
16038;DHT22;8123;50.906;6.172;2023-04-25T12:49:03;10.70;54.90
16038;DHT22;8123;50.906;6.172;2023-04-25T12:51:29;10.80;54.50
16038;DHT22;8123;50.906;6.172;2023-04-25T12:53:55;10.90;56.40
16038;DHT22;8123;50.906;6.172;2023-04-25T12:56:20;10.90;56.30
16038;DHT22;8123;50.906;6.172;2023-04-25T12:58:46;11.10;59.20
16038;DHT22;8123;50.906;6.172;2023-04-25T13:01:13;11.30;59.10
16038;DHT22;8123;50.906;6.172;2023-04-25T13:03:39;11.30;58.40
16038;DHT22;8123;50.906;6.172;2023-04-25T13:06:06;11.50;57.80
16038;DHT22;8123;50.906;6.172;2023-04-25T13:08:32;11.60;55.70
16038;DHT22;8123;50.906;6.172;2023-04-25T13:10:58;11.50;54.20
16038;DHT22;8123;50.906;6.172;2023-04-25T13:13:24;11.40;56.20
16038;DHT22;8123;50.906;6.172;2023-04-25T13:15:50;11.40;55.10
16038;DHT22;8123;50.906;6.172;2023-04-25T13:18:15;11.50;55.90
16038;DHT22;8123;50.906;6.172;2023-04-25T13:20:41;11.40;57.40
16038;DHT22;8123;50.906;6.172;2023-04-25T13:23:07;11.00;60.10
16038;DHT22;8123;50.906;6.172;2023-04-25T13:25:32;10.90;60.40
16038;DHT22;8123;50.906;6.172;2023-04-25T13:27:58;10.50;58.80
16038;DHT22;8123;50.906;6.172;2023-04-25T13:30:24;10.20;60.90
16038;DHT22;8123;50.906;6.172;2023-04-25T13:32:49;10.00;64.40
16038;DHT22;8123;50.906;6.172;2023-04-25T13:35:16;10.10;60.80
16038;DHT22;8123;50.906;6.172;2023-04-25T13:37:41;9.70;63.40
16038;DHT22;8123;50.906;6.172;2023-04-25T13:40:09;9.70;65.00
16038;DHT22;8123;50.906;6.172;2023-04-25T13:42:38;9.70;66.40
16038;DHT22;8123;50.906;6.172;2023-04-25T13:45:05;9.90;69.00
16038;DHT22;8123;50.906;6.172;2023-04-25T13:47:31;9.70;64.80
16038;DHT22;8123;50.906;6.172;2023-04-25T13:49:57;9.70;64.50
16038;DHT22;8123;50.906;6.172;2023-04-25T13:52:23;9.80;64.30
16038;DHT22;8123;50.906;6.172;2023-04-25T13:54:49;10.30;64.00
16038;DHT22;8123;50.906;6.172;2023-04-25T13:57:16;10.20;68.90
16038;DHT22;8123;50.906;6.172;2023-04-25T13:59:42;10.40;64.90
16038;DHT22;8123;50.906;6.172;2023-04-25T14:02:07;10.40;63.50
16038;DHT22;8123;50.906;6.172;2023-04-25T14:04:33;10.50;62.80
16038;DHT22;8123;50.906;6.172;2023-04-25T14:06:59;10.30;66.30
16038;DHT22;8123;50.906;6.172;2023-04-25T14:09:25;10.50;68.80
16038;DHT22;8123;50.906;6.172;2023-04-25T14:11:52;10.30;71.00
16038;DHT22;8123;50.906;6.172;2023-04-25T14:14:19;10.10;72.10
16038;DHT22;8123;50.906;6.172;2023-04-25T14:16:45;10.00;73.00
16038;DHT22;8123;50.906;6.172;2023-04-25T14:19:11;10.40;75.30
16038;DHT22;8123;50.906;6.172;2023-04-25T14:21:36;10.30;76.90
16038;DHT22;8123;50.906;6.172;2023-04-25T14:24:02;10.70;74.60
16038;DHT22;8123;50.906;6.172;2023-04-25T14:26:28;10.50;73.80
16038;DHT22;8123;50.906;6.172;2023-04-25T14:28:53;10.60;74.90
16038;DHT22;8123;50.906;6.172;2023-04-25T14:31:19;10.70;74.50
16038;DHT22;8123;50.906;6.172;2023-04-25T14:33:45;10.70;70.80
16038;DHT22;8123;50.906;6.172;2023-04-25T14:36:11;10.60;72.50
16038;DHT22;8123;50.906;6.172;2023-04-25T14:38:36;10.60;74.10
16038;DHT22;8123;50.906;6.172;2023-04-25T14:41:03;10.70;63.50
16038;DHT22;8123;50.906;6.172;2023-04-25T14:43:28;10.60;60.90
16038;DHT22;8123;50.906;6.172;2023-04-25T14:45:54;10.50;62.70
16038;DHT22;8123;50.906;6.172;2023-04-25T14:48:19;10.50;62.20
16038;DHT22;8123;50.906;6.172;2023-04-25T14:50:46;10.80;60.50
16038;DHT22;8123;50.906;6.172;2023-04-25T14:53:12;10.40;59.80
16038;DHT22;8123;50.906;6.172;2023-04-25T14:55:37;10.30;59.80
16038;DHT22;8123;50.906;6.172;2023-04-25T14:58:03;10.20;62.00
16038;DHT22;8123;50.906;6.172;2023-04-25T15:00:29;10.40;61.60
16038;DHT22;8123;50.906;6.172;2023-04-25T15:02:57;10.10;62.80
16038;DHT22;8123;50.906;6.172;2023-04-25T15:05:23;10.10;61.60
16038;DHT22;8123;50.906;6.172;2023-04-25T15:07:49;10.50;64.20
16038;DHT22;8123;50.906;6.172;2023-04-25T15:10:16;10.40;61.50
16038;DHT22;8123;50.906;6.172;2023-04-25T15:12:45;10.40;62.30
16038;DHT22;8123;50.906;6.172;2023-04-25T15:15:11;10.50;60.00
16038;DHT22;8123;50.906;6.172;2023-04-25T15:17:46;10.40;60.50
16038;DHT22;8123;50.906;6.172;2023-04-25T15:20:12;10.40;62.00
16038;DHT22;8123;50.906;6.172;2023-04-25T15:22:40;10.40;60.70
16038;DHT22;8123;50.906;6.172;2023-04-25T15:25:09;10.50;62.10
16038;DHT22;8123;50.906;6.172;2023-04-25T15:27:37;10.60;59.80
16038;DHT22;8123;50.906;6.172;2023-04-25T15:30:09;10.80;61.10
16038;DHT22;8123;50.906;6.172;2023-04-25T15:32:37;10.70;61.90
16038;DHT22;8123;50.906;6.172;2023-04-25T15:35:04;10.70;64.00
16038;DHT22;8123;50.906;6.172;2023-04-25T15:37:31;10.60;63.40
16038;DHT22;8123;50.906;6.172;2023-04-25T15:40:17;10.40;64.30
16038;DHT22;8123;50.906;6.172;2023-04-25T15:42:48;10.30;60.80
16038;DHT22;8123;50.906;6.172;2023-04-25T15:45:24;10.20;62.60
16038;DHT22;8123;50.906;6.172;2023-04-25T15:47:55;10.30;63.30
16038;DHT22;8123;50.906;6.172;2023-04-25T15:50:21;10.30;61.00
16038;DHT22;8123;50.906;6.172;2023-04-25T15:52:48;10.40;61.70
16038;DHT22;8123;50.906;6.172;2023-04-25T15:55:15;10.60;60.10
16038;DHT22;8123;50.906;6.172;2023-04-25T15:57:42;10.70;60.50
16038;DHT22;8123;50.906;6.172;2023-04-25T16:00:08;11.10;58.20